sensor_id;sensor_type;location;lat;lon;timestamp;P1;durP1;ratioP1;P2;durP2;ratioP2
64791;SDS011;51226;47.504;19.074;2023-03-19T00:01:03;17.00;;;12.77;;
64791;SDS011;51226;47.504;19.074;2023-03-19T00:04:16;18.08;;;14.23;;
64791;SDS011;51226;47.504;19.074;2023-03-19T00:07:19;17.08;;;13.93;;
64791;SDS011;51226;47.504;19.074;2023-03-19T00:10:22;19.62;;;13.35;;
64791;SDS011;51226;47.504;19.074;2023-03-19T00:13:24;16.98;;;13.75;;
64791;SDS011;51226;47.504;19.074;2023-03-19T00:16:28;20.25;;;15.48;;
64791;SDS011;51226;47.504;19.074;2023-03-19T00:19:30;19.00;;;13.82;;
64791;SDS011;51226;47.504;19.074;2023-03-19T00:22:34;20.55;;;14.90;;
64791;SDS011;51226;47.504;19.074;2023-03-19T00:25:36;19.62;;;15.25;;
64791;SDS011;51226;47.504;19.074;2023-03-19T00:28:42;20.90;;;14.68;;
64791;SDS011;51226;47.504;19.074;2023-03-19T00:31:45;21.92;;;15.40;;
64791;SDS011;51226;47.504;19.074;2023-03-19T00:34:48;18.50;;;14.50;;
64791;SDS011;51226;47.504;19.074;2023-03-19T00:37:52;22.00;;;15.93;;
64791;SDS011;51226;47.504;19.074;2023-03-19T00:40:54;19.35;;;13.98;;
64791;SDS011;51226;47.504;19.074;2023-03-19T00:43:57;24.92;;;14.93;;
64791;SDS011;51226;47.504;19.074;2023-03-19T00:47:04;19.70;;;15.50;;
64791;SDS011;51226;47.504;19.074;2023-03-19T00:50:08;17.60;;;14.07;;
64791;SDS011;51226;47.504;19.074;2023-03-19T00:53:12;20.10;;;14.02;;
64791;SDS011;51226;47.504;19.074;2023-03-19T00:56:15;19.95;;;15.10;;
64791;SDS011;51226;47.504;19.074;2023-03-19T00:59:20;19.00;;;14.27;;
64791;SDS011;51226;47.504;19.074;2023-03-19T01:02:23;19.50;;;15.32;;
64791;SDS011;51226;47.504;19.074;2023-03-19T01:05:26;21.12;;;15.90;;
64791;SDS011;51226;47.504;19.074;2023-03-19T01:08:31;18.67;;;14.13;;
64791;SDS011;51226;47.504;19.074;2023-03-19T01:11:34;17.80;;;15.10;;
64791;SDS011;51226;47.504;19.074;2023-03-19T01:14:38;18.37;;;15.00;;
64791;SDS011;51226;47.504;19.074;2023-03-19T01:17:41;18.15;;;15.05;;
64791;SDS011;51226;47.504;19.074;2023-03-19T01:20:44;19.65;;;14.27;;
64791;SDS011;51226;47.504;19.074;2023-03-19T01:23:47;17.20;;;13.48;;
64791;SDS011;51226;47.504;19.074;2023-03-19T01:26:50;18.45;;;13.82;;
64791;SDS011;51226;47.504;19.074;2023-03-19T01:29:54;19.77;;;14.30;;
64791;SDS011;51226;47.504;19.074;2023-03-19T01:32:58;19.62;;;14.15;;
64791;SDS011;51226;47.504;19.074;2023-03-19T01:39:06;18.35;;;13.57;;
64791;SDS011;51226;47.504;19.074;2023-03-19T01:42:11;20.60;;;13.98;;
64791;SDS011;51226;47.504;19.074;2023-03-19T01:45:31;18.73;;;13.65;;
64791;SDS011;51226;47.504;19.074;2023-03-19T01:48:45;16.85;;;13.05;;
64791;SDS011;51226;47.504;19.074;2023-03-19T01:51:51;18.67;;;13.85;;
64791;SDS011;51226;47.504;19.074;2023-03-19T01:54:57;18.27;;;13.05;;
64791;SDS011;51226;47.504;19.074;2023-03-19T01:58:04;20.90;;;13.73;;
64791;SDS011;51226;47.504;19.074;2023-03-19T02:01:09;19.42;;;13.50;;
64791;SDS011;51226;47.504;19.074;2023-03-19T02:04:15;16.77;;;13.18;;
64791;SDS011;51226;47.504;19.074;2023-03-19T02:07:18;16.55;;;12.37;;
64791;SDS011;51226;47.504;19.074;2023-03-19T02:10:22;17.50;;;12.45;;
64791;SDS011;51226;47.504;19.074;2023-03-19T02:13:25;18.65;;;12.52;;
64791;SDS011;51226;47.504;19.074;2023-03-19T02:16:29;14.38;;;12.68;;
64791;SDS011;51226;47.504;19.074;2023-03-19T02:23:33;15.10;;;10.77;;
64791;SDS011;51226;47.504;19.074;2023-03-19T02:26:25;17.85;;;12.18;;
64791;SDS011;51226;47.504;19.074;2023-03-19T02:29:32;16.20;;;12.32;;
64791;SDS011;51226;47.504;19.074;2023-03-19T02:32:35;17.30;;;11.90;;
64791;SDS011;51226;47.504;19.074;2023-03-19T02:35:39;18.60;;;13.30;;
64791;SDS011;51226;47.504;19.074;2023-03-19T02:38:43;14.70;;;11.80;;
64791;SDS011;51226;47.504;19.074;2023-03-19T02:41:49;17.90;;;13.05;;
64791;SDS011;51226;47.504;19.074;2023-03-19T02:44:56;15.85;;;11.40;;
64791;SDS011;51226;47.504;19.074;2023-03-19T02:48:01;15.63;;;11.90;;
64791;SDS011;51226;47.504;19.074;2023-03-19T02:51:03;15.45;;;11.43;;
64791;SDS011;51226;47.504;19.074;2023-03-19T02:54:07;15.70;;;11.68;;
64791;SDS011;51226;47.504;19.074;2023-03-19T02:57:10;17.70;;;12.02;;
64791;SDS011;51226;47.504;19.074;2023-03-19T03:00:13;15.93;;;11.95;;
64791;SDS011;51226;47.504;19.074;2023-03-19T03:03:18;15.00;;;11.30;;
64791;SDS011;51226;47.504;19.074;2023-03-19T03:06:21;16.15;;;12.13;;
64791;SDS011;51226;47.504;19.074;2023-03-19T03:09:24;15.27;;;11.83;;
64791;SDS011;51226;47.504;19.074;2023-03-19T03:15:29;15.43;;;10.98;;
64791;SDS011;51226;47.504;19.074;2023-03-19T03:18:33;17.17;;;11.55;;
64791;SDS011;51226;47.504;19.074;2023-03-19T03:21:36;14.57;;;10.98;;
64791;SDS011;51226;47.504;19.074;2023-03-19T03:24:39;13.82;;;10.05;;
64791;SDS011;51226;47.504;19.074;2023-03-19T03:27:42;13.95;;;10.75;;
64791;SDS011;51226;47.504;19.074;2023-03-19T03:30:46;15.75;;;10.82;;
64791;SDS011;51226;47.504;19.074;2023-03-19T03:33:50;15.38;;;11.27;;
64791;SDS011;51226;47.504;19.074;2023-03-19T03:36:53;12.82;;;10.73;;
64791;SDS011;51226;47.504;19.074;2023-03-19T03:39:56;15.40;;;11.07;;
64791;SDS011;51226;47.504;19.074;2023-03-19T03:42:59;15.25;;;10.82;;
64791;SDS011;51226;47.504;19.074;2023-03-19T03:46:03;12.57;;;9.75;;
64791;SDS011;51226;47.504;19.074;2023-03-19T03:49:08;18.60;;;12.60;;
64791;SDS011;51226;47.504;19.074;2023-03-19T03:52:12;16.10;;;11.85;;
64791;SDS011;51226;47.504;19.074;2023-03-19T03:58:17;16.33;;;11.52;;
64791;SDS011;51226;47.504;19.074;2023-03-19T04:01:21;16.27;;;12.23;;
64791;SDS011;51226;47.504;19.074;2023-03-19T04:07:27;16.15;;;11.90;;
64791;SDS011;51226;47.504;19.074;2023-03-19T04:10:31;16.65;;;12.07;;
64791;SDS011;51226;47.504;19.074;2023-03-19T04:13:37;17.05;;;11.68;;
64791;SDS011;51226;47.504;19.074;2023-03-19T04:16:40;15.15;;;10.55;;
64791;SDS011;51226;47.504;19.074;2023-03-19T04:19:45;17.75;;;11.95;;
64791;SDS011;51226;47.504;19.074;2023-03-19T04:22:48;15.80;;;11.23;;
64791;SDS011;51226;47.504;19.074;2023-03-19T04:25:51;15.93;;;12.00;;
64791;SDS011;51226;47.504;19.074;2023-03-19T04:28:54;16.15;;;11.70;;
64791;SDS011;51226;47.504;19.074;2023-03-19T04:31:58;14.38;;;10.90;;
64791;SDS011;51226;47.504;19.074;2023-03-19T04:38:05;15.63;;;11.55;;
64791;SDS011;51226;47.504;19.074;2023-03-19T04:41:07;16.27;;;11.12;;
64791;SDS011;51226;47.504;19.074;2023-03-19T04:44:11;15.88;;;11.30;;
64791;SDS011;51226;47.504;19.074;2023-03-19T04:50:19;13.82;;;10.23;;
64791;SDS011;51226;47.504;19.074;2023-03-19T04:53:22;16.00;;;10.88;;
64791;SDS011;51226;47.504;19.074;2023-03-19T04:56:26;16.17;;;11.45;;
64791;SDS011;51226;47.504;19.074;2023-03-19T04:59:29;16.10;;;11.23;;
64791;SDS011;51226;47.504;19.074;2023-03-19T05:02:33;15.88;;;11.75;;
64791;SDS011;51226;47.504;19.074;2023-03-19T05:05:35;15.07;;;10.88;;
64791;SDS011;51226;47.504;19.074;2023-03-19T05:08:39;18.75;;;13.23;;
64791;SDS011;51226;47.504;19.074;2023-03-19T05:11:42;15.15;;;12.05;;
64791;SDS011;51226;47.504;19.074;2023-03-19T05:14:45;19.52;;;13.62;;
64791;SDS011;51226;47.504;19.074;2023-03-19T05:20:53;19.77;;;13.45;;
64791;SDS011;51226;47.504;19.074;2023-03-19T05:26:59;21.02;;;12.68;;
64791;SDS011;51226;47.504;19.074;2023-03-19T05:30:03;19.58;;;12.88;;
64791;SDS011;51226;47.504;19.074;2023-03-19T05:33:08;17.80;;;12.65;;
64791;SDS011;51226;47.504;19.074;2023-03-19T05:36:12;17.00;;;12.45;;
64791;SDS011;51226;47.504;19.074;2023-03-19T05:39:15;15.82;;;12.40;;
64791;SDS011;51226;47.504;19.074;2023-03-19T05:42:18;19.08;;;13.13;;
64791;SDS011;51226;47.504;19.074;2023-03-19T05:45:22;18.35;;;13.13;;
64791;SDS011;51226;47.504;19.074;2023-03-19T05:48:25;18.00;;;12.85;;
64791;SDS011;51226;47.504;19.074;2023-03-19T05:54:32;17.02;;;14.02;;
64791;SDS011;51226;47.504;19.074;2023-03-19T05:57:35;20.77;;;14.43;;
64791;SDS011;51226;47.504;19.074;2023-03-19T06:00:38;19.20;;;15.25;;
64791;SDS011;51226;47.504;19.074;2023-03-19T06:03:41;20.80;;;13.62;;
64791;SDS011;51226;47.504;19.074;2023-03-19T06:06:45;18.83;;;13.88;;
64791;SDS011;51226;47.504;19.074;2023-03-19T06:09:48;17.48;;;13.68;;
64791;SDS011;51226;47.504;19.074;2023-03-19T06:12:51;15.10;;;12.70;;
64791;SDS011;51226;47.504;19.074;2023-03-19T06:15:55;17.42;;;13.30;;
64791;SDS011;51226;47.504;19.074;2023-03-19T06:18:58;14.90;;;11.35;;
64791;SDS011;51226;47.504;19.074;2023-03-19T06:22:01;16.45;;;13.90;;
64791;SDS011;51226;47.504;19.074;2023-03-19T06:25:04;21.15;;;11.43;;
64791;SDS011;51226;47.504;19.074;2023-03-19T06:28:09;14.23;;;10.77;;
64791;SDS011;51226;47.504;19.074;2023-03-19T06:34:17;13.48;;;9.50;;
64791;SDS011;51226;47.504;19.074;2023-03-19T06:37:20;13.23;;;9.98;;
64791;SDS011;51226;47.504;19.074;2023-03-19T06:43:27;10.23;;;8.77;;
64791;SDS011;51226;47.504;19.074;2023-03-19T06:46:30;16.00;;;9.98;;
64791;SDS011;51226;47.504;19.074;2023-03-19T06:49:33;12.97;;;9.23;;
64791;SDS011;51226;47.504;19.074;2023-03-19T06:52:36;11.98;;;8.40;;
64791;SDS011;51226;47.504;19.074;2023-03-19T06:55:39;11.50;;;7.18;;
64791;SDS011;51226;47.504;19.074;2023-03-19T06:58:42;10.05;;;6.93;;
64791;SDS011;51226;47.504;19.074;2023-03-19T07:01:45;8.67;;;7.13;;
64791;SDS011;51226;47.504;19.074;2023-03-19T07:07:52;9.48;;;7.03;;
64791;SDS011;51226;47.504;19.074;2023-03-19T07:10:55;8.30;;;6.75;;
64791;SDS011;51226;47.504;19.074;2023-03-19T07:14:00;8.75;;;7.05;;
64791;SDS011;51226;47.504;19.074;2023-03-19T07:20:06;9.18;;;7.28;;
64791;SDS011;51226;47.504;19.074;2023-03-19T07:23:09;8.38;;;6.95;;
64791;SDS011;51226;47.504;19.074;2023-03-19T07:26:12;9.67;;;6.67;;
64791;SDS011;51226;47.504;19.074;2023-03-19T07:32:18;7.17;;;6.47;;
64791;SDS011;51226;47.504;19.074;2023-03-19T07:35:22;7.57;;;6.53;;
64791;SDS011;51226;47.504;19.074;2023-03-19T07:38:25;7.97;;;6.43;;
64791;SDS011;51226;47.504;19.074;2023-03-19T07:44:30;8.05;;;6.40;;
64791;SDS011;51226;47.504;19.074;2023-03-19T07:50:36;6.68;;;5.87;;
64791;SDS011;51226;47.504;19.074;2023-03-19T07:56:42;6.87;;;6.10;;
64791;SDS011;51226;47.504;19.074;2023-03-19T08:02:47;7.07;;;5.57;;
64791;SDS011;51226;47.504;19.074;2023-03-19T08:05:50;8.40;;;6.18;;
64791;SDS011;51226;47.504;19.074;2023-03-19T08:08:53;6.40;;;5.80;;
64791;SDS011;51226;47.504;19.074;2023-03-19T08:11:56;7.18;;;5.53;;
64791;SDS011;51226;47.504;19.074;2023-03-19T08:14:59;7.47;;;5.18;;
64791;SDS011;51226;47.504;19.074;2023-03-19T08:18:03;5.32;;;4.82;;
64791;SDS011;51226;47.504;19.074;2023-03-19T08:21:06;6.50;;;5.35;;
64791;SDS011;51226;47.504;19.074;2023-03-19T08:24:10;7.78;;;5.12;;
64791;SDS011;51226;47.504;19.074;2023-03-19T08:27:13;7.30;;;5.90;;
64791;SDS011;51226;47.504;19.074;2023-03-19T08:30:16;6.30;;;5.37;;
64791;SDS011;51226;47.504;19.074;2023-03-19T08:33:19;5.95;;;5.32;;
64791;SDS011;51226;47.504;19.074;2023-03-19T08:36:22;6.15;;;5.55;;
64791;SDS011;51226;47.504;19.074;2023-03-19T08:39:25;6.28;;;5.68;;
64791;SDS011;51226;47.504;19.074;2023-03-19T08:42:28;6.68;;;5.97;;
64791;SDS011;51226;47.504;19.074;2023-03-19T08:45:32;8.65;;;5.60;;
64791;SDS011;51226;47.504;19.074;2023-03-19T08:48:35;6.70;;;5.97;;
64791;SDS011;51226;47.504;19.074;2023-03-19T08:51:40;6.68;;;5.87;;
64791;SDS011;51226;47.504;19.074;2023-03-19T08:54:43;6.53;;;5.62;;
64791;SDS011;51226;47.504;19.074;2023-03-19T08:57:46;7.18;;;5.10;;
64791;SDS011;51226;47.504;19.074;2023-03-19T09:00:49;6.72;;;5.60;;
64791;SDS011;51226;47.504;19.074;2023-03-19T09:03:52;6.70;;;5.60;;
64791;SDS011;51226;47.504;19.074;2023-03-19T09:06:55;6.53;;;5.93;;
64791;SDS011;51226;47.504;19.074;2023-03-19T09:09:58;6.28;;;5.60;;
64791;SDS011;51226;47.504;19.074;2023-03-19T09:13:01;6.18;;;5.57;;
64791;SDS011;51226;47.504;19.074;2023-03-19T09:16:04;6.10;;;5.50;;
64791;SDS011;51226;47.504;19.074;2023-03-19T09:19:08;6.60;;;5.93;;
64791;SDS011;51226;47.504;19.074;2023-03-19T09:22:11;6.47;;;4.87;;
64791;SDS011;51226;47.504;19.074;2023-03-19T09:25:14;5.82;;;5.30;;
64791;SDS011;51226;47.504;19.074;2023-03-19T09:28:17;7.30;;;5.57;;
64791;SDS011;51226;47.504;19.074;2023-03-19T09:31:22;7.53;;;5.90;;
64791;SDS011;51226;47.504;19.074;2023-03-19T09:34:25;7.12;;;6.43;;
64791;SDS011;51226;47.504;19.074;2023-03-19T09:37:28;6.55;;;5.65;;
64791;SDS011;51226;47.504;19.074;2023-03-19T09:40:35;7.47;;;5.18;;
64791;SDS011;51226;47.504;19.074;2023-03-19T09:50:33;6.28;;;5.32;;
64791;SDS011;51226;47.504;19.074;2023-03-19T09:53:41;5.97;;;5.30;;
64791;SDS011;51226;47.504;19.074;2023-03-19T09:56:51;6.65;;;6.00;;
64791;SDS011;51226;47.504;19.074;2023-03-19T09:59:55;7.57;;;5.68;;
64791;SDS011;51226;47.504;19.074;2023-03-19T10:03:00;8.82;;;6.78;;
64791;SDS011;51226;47.504;19.074;2023-03-19T10:12:49;8.27;;;6.53;;
64791;SDS011;51226;47.504;19.074;2023-03-19T10:16:01;6.72;;;5.82;;
64791;SDS011;51226;47.504;19.074;2023-03-19T10:19:09;7.03;;;6.32;;
64791;SDS011;51226;47.504;19.074;2023-03-19T10:22:38;7.37;;;5.65;;
64791;SDS011;51226;47.504;19.074;2023-03-19T10:25:45;6.68;;;6.07;;
64791;SDS011;51226;47.504;19.074;2023-03-19T10:29:13;7.25;;;6.55;;
64791;SDS011;51226;47.504;19.074;2023-03-19T10:35:45;6.12;;;5.50;;
64791;SDS011;51226;47.504;19.074;2023-03-19T10:38:53;6.70;;;5.70;;
64791;SDS011;51226;47.504;19.074;2023-03-19T10:42:02;6.40;;;5.50;;
64791;SDS011;51226;47.504;19.074;2023-03-19T10:45:19;7.03;;;6.25;;
64791;SDS011;51226;47.504;19.074;2023-03-19T10:48:28;9.45;;;6.35;;
64791;SDS011;51226;47.504;19.074;2023-03-19T10:51:32;6.68;;;5.65;;
64791;SDS011;51226;47.504;19.074;2023-03-19T10:54:38;7.32;;;6.10;;
64791;SDS011;51226;47.504;19.074;2023-03-19T10:57:44;7.22;;;6.53;;
64791;SDS011;51226;47.504;19.074;2023-03-19T11:00:56;7.37;;;6.50;;
64791;SDS011;51226;47.504;19.074;2023-03-19T11:04:00;8.73;;;7.87;;
64791;SDS011;51226;47.504;19.074;2023-03-19T11:07:14;6.47;;;5.82;;
64791;SDS011;51226;47.504;19.074;2023-03-19T11:10:23;6.37;;;5.78;;
64791;SDS011;51226;47.504;19.074;2023-03-19T11:13:28;7.40;;;6.40;;
64791;SDS011;51226;47.504;19.074;2023-03-19T11:16:44;8.68;;;6.22;;
64791;SDS011;51226;47.504;19.074;2023-03-19T11:19:56;7.20;;;6.50;;
64791;SDS011;51226;47.504;19.074;2023-03-19T11:23:01;7.10;;;6.37;;
64791;SDS011;51226;47.504;19.074;2023-03-19T11:26:09;7.85;;;6.18;;
64791;SDS011;51226;47.504;19.074;2023-03-19T11:29:21;7.00;;;6.20;;
64791;SDS011;51226;47.504;19.074;2023-03-19T11:55:19;6.72;;;5.18;;
64791;SDS011;51226;47.504;19.074;2023-03-19T12:05:34;6.62;;;5.40;;
64791;SDS011;51226;47.504;19.074;2023-03-19T12:26:32;6.43;;;5.28;;
64791;SDS011;51226;47.504;19.074;2023-03-19T12:36:19;5.75;;;5.12;;
64791;SDS011;51226;47.504;19.074;2023-03-19T12:39:30;5.62;;;5.12;;
64791;SDS011;51226;47.504;19.074;2023-03-19T12:42:38;6.90;;;5.30;;
64791;SDS011;51226;47.504;19.074;2023-03-19T12:45:44;5.68;;;5.03;;
64791;SDS011;51226;47.504;19.074;2023-03-19T12:48:53;7.07;;;5.20;;
64791;SDS011;51226;47.504;19.074;2023-03-19T12:55:40;6.75;;;5.15;;
64791;SDS011;51226;47.504;19.074;2023-03-19T12:59:01;5.85;;;4.57;;
64791;SDS011;51226;47.504;19.074;2023-03-19T13:02:15;5.50;;;5.05;;
64791;SDS011;51226;47.504;19.074;2023-03-19T13:05:29;5.28;;;4.78;;
64791;SDS011;51226;47.504;19.074;2023-03-19T13:12:21;6.00;;;5.12;;
64791;SDS011;51226;47.504;19.074;2023-03-19T13:15:31;5.15;;;4.65;;
64791;SDS011;51226;47.504;19.074;2023-03-19T13:18:45;6.05;;;5.05;;
64791;SDS011;51226;47.504;19.074;2023-03-19T13:22:15;6.20;;;5.47;;
64791;SDS011;51226;47.504;19.074;2023-03-19T13:25:23;5.60;;;5.00;;
64791;SDS011;51226;47.504;19.074;2023-03-19T13:28:33;5.93;;;4.62;;
64791;SDS011;51226;47.504;19.074;2023-03-19T13:31:39;5.37;;;4.87;;
64791;SDS011;51226;47.504;19.074;2023-03-19T13:40:55;6.03;;;5.10;;
64791;SDS011;51226;47.504;19.074;2023-03-19T13:44:19;5.07;;;4.60;;
64791;SDS011;51226;47.504;19.074;2023-03-19T13:50:59;6.68;;;4.85;;
64791;SDS011;51226;47.504;19.074;2023-03-19T13:57:34;5.72;;;5.07;;
64791;SDS011;51226;47.504;19.074;2023-03-19T14:03:56;6.22;;;5.22;;
64791;SDS011;51226;47.504;19.074;2023-03-19T14:10:23;9.93;;;8.10;;
64791;SDS011;51226;47.504;19.074;2023-03-19T14:16:39;5.90;;;4.43;;
64791;SDS011;51226;47.504;19.074;2023-03-19T14:19:48;6.53;;;5.05;;
64791;SDS011;51226;47.504;19.074;2023-03-19T14:26:27;5.32;;;4.82;;
64791;SDS011;51226;47.504;19.074;2023-03-19T14:29:32;4.68;;;4.28;;
64791;SDS011;51226;47.504;19.074;2023-03-19T14:32:37;6.00;;;4.70;;
64791;SDS011;51226;47.504;19.074;2023-03-19T14:35:44;5.78;;;5.20;;
64791;SDS011;51226;47.504;19.074;2023-03-19T14:38:56;33.60;;;7.70;;
64791;SDS011;51226;47.504;19.074;2023-03-19T14:42:10;5.90;;;5.30;;
64791;SDS011;51226;47.504;19.074;2023-03-19T14:45:24;6.53;;;5.05;;
64791;SDS011;51226;47.504;19.074;2023-03-19T14:52:00;5.90;;;4.80;;
64791;SDS011;51226;47.504;19.074;2023-03-19T14:55:10;5.75;;;5.00;;
64791;SDS011;51226;47.504;19.074;2023-03-19T14:58:15;7.20;;;5.20;;
64791;SDS011;51226;47.504;19.074;2023-03-19T15:01:18;7.07;;;5.40;;
64791;SDS011;51226;47.504;19.074;2023-03-19T15:04:22;6.85;;;5.68;;
64791;SDS011;51226;47.504;19.074;2023-03-19T15:07:34;6.60;;;5.22;;
64791;SDS011;51226;47.504;19.074;2023-03-19T15:10:49;6.80;;;4.93;;
64791;SDS011;51226;47.504;19.074;2023-03-19T15:17:22;6.37;;;5.12;;
64791;SDS011;51226;47.504;19.074;2023-03-19T15:20:29;6.12;;;5.37;;
64791;SDS011;51226;47.504;19.074;2023-03-19T15:23:36;7.12;;;5.57;;
64791;SDS011;51226;47.504;19.074;2023-03-19T15:26:43;6.72;;;5.30;;
64791;SDS011;51226;47.504;19.074;2023-03-19T15:29:47;6.68;;;5.70;;
64791;SDS011;51226;47.504;19.074;2023-03-19T15:32:53;7.07;;;5.32;;
64791;SDS011;51226;47.504;19.074;2023-03-19T15:36:13;7.12;;;5.93;;
64791;SDS011;51226;47.504;19.074;2023-03-19T15:39:26;7.72;;;5.75;;
64791;SDS011;51226;47.504;19.074;2023-03-19T15:42:34;9.20;;;6.05;;
64791;SDS011;51226;47.504;19.074;2023-03-19T15:45:41;7.07;;;6.03;;
64791;SDS011;51226;47.504;19.074;2023-03-19T15:52:01;6.93;;;5.60;;
64791;SDS011;51226;47.504;19.074;2023-03-19T15:55:08;7.55;;;5.82;;
64791;SDS011;51226;47.504;19.074;2023-03-19T15:58:15;6.80;;;5.80;;
64791;SDS011;51226;47.504;19.074;2023-03-19T16:01:22;7.37;;;5.60;;
64791;SDS011;51226;47.504;19.074;2023-03-19T16:04:26;8.13;;;6.47;;
64791;SDS011;51226;47.504;19.074;2023-03-19T16:07:49;6.87;;;6.10;;
64791;SDS011;51226;47.504;19.074;2023-03-19T16:11:42;7.32;;;6.28;;
64791;SDS011;51226;47.504;19.074;2023-03-19T16:14:40;8.48;;;5.80;;
64791;SDS011;51226;47.504;19.074;2023-03-19T16:17:45;7.47;;;6.25;;
64791;SDS011;51226;47.504;19.074;2023-03-19T16:24:12;6.28;;;5.68;;
64791;SDS011;51226;47.504;19.074;2023-03-19T16:27:35;10.40;;;6.35;;
64791;SDS011;51226;47.504;19.074;2023-03-19T16:30:45;10.38;;;6.28;;
64791;SDS011;51226;47.504;19.074;2023-03-19T16:33:49;8.70;;;5.68;;
64791;SDS011;51226;47.504;19.074;2023-03-19T16:36:54;9.95;;;7.12;;
64791;SDS011;51226;47.504;19.074;2023-03-19T16:43:07;8.60;;;7.22;;
64791;SDS011;51226;47.504;19.074;2023-03-19T16:46:18;10.63;;;7.22;;
64791;SDS011;51226;47.504;19.074;2023-03-19T16:49:21;10.30;;;7.00;;
64791;SDS011;51226;47.504;19.074;2023-03-19T16:52:26;8.48;;;6.90;;
64791;SDS011;51226;47.504;19.074;2023-03-19T16:55:33;8.25;;;6.72;;
64791;SDS011;51226;47.504;19.074;2023-03-19T16:58:37;27.45;;;10.23;;
64791;SDS011;51226;47.504;19.074;2023-03-19T17:01:44;10.90;;;7.50;;
64791;SDS011;51226;47.504;19.074;2023-03-19T17:04:47;9.43;;;7.55;;
64791;SDS011;51226;47.504;19.074;2023-03-19T17:07:51;10.63;;;7.10;;
64791;SDS011;51226;47.504;19.074;2023-03-19T17:10:56;8.80;;;7.00;;
64791;SDS011;51226;47.504;19.074;2023-03-19T17:14:00;10.23;;;7.10;;
64791;SDS011;51226;47.504;19.074;2023-03-19T17:17:05;9.50;;;6.60;;
64791;SDS011;51226;47.504;19.074;2023-03-19T17:20:23;9.82;;;7.03;;
64791;SDS011;51226;47.504;19.074;2023-03-19T17:23:31;7.55;;;6.32;;
64791;SDS011;51226;47.504;19.074;2023-03-19T17:26:36;10.35;;;7.40;;
64791;SDS011;51226;47.504;19.074;2023-03-19T17:29:38;8.73;;;7.35;;
64791;SDS011;51226;47.504;19.074;2023-03-19T17:32:45;9.45;;;7.50;;
64791;SDS011;51226;47.504;19.074;2023-03-19T17:35:51;10.27;;;7.43;;
64791;SDS011;51226;47.504;19.074;2023-03-19T17:38:55;9.63;;;7.80;;
64791;SDS011;51226;47.504;19.074;2023-03-19T17:41:57;11.50;;;7.87;;
64791;SDS011;51226;47.504;19.074;2023-03-19T17:45:01;11.75;;;8.80;;
64791;SDS011;51226;47.504;19.074;2023-03-19T17:48:04;10.40;;;8.05;;
64791;SDS011;51226;47.504;19.074;2023-03-19T17:51:07;10.90;;;8.50;;
64791;SDS011;51226;47.504;19.074;2023-03-19T17:54:11;11.70;;;7.93;;
64791;SDS011;51226;47.504;19.074;2023-03-19T17:57:14;12.80;;;9.20;;
64791;SDS011;51226;47.504;19.074;2023-03-19T18:00:18;11.75;;;8.98;;
64791;SDS011;51226;47.504;19.074;2023-03-19T18:03:23;10.75;;;8.57;;
64791;SDS011;51226;47.504;19.074;2023-03-19T18:06:32;10.45;;;8.63;;
64791;SDS011;51226;47.504;19.074;2023-03-19T18:09:37;10.88;;;8.75;;
64791;SDS011;51226;47.504;19.074;2023-03-19T18:12:39;10.07;;;8.35;;
64791;SDS011;51226;47.504;19.074;2023-03-19T18:21:50;16.00;;;10.15;;
64791;SDS011;51226;47.504;19.074;2023-03-19T18:24:53;15.70;;;11.05;;
64791;SDS011;51226;47.504;19.074;2023-03-19T18:27:57;18.10;;;11.88;;
64791;SDS011;51226;47.504;19.074;2023-03-19T18:30:59;16.23;;;11.57;;
64791;SDS011;51226;47.504;19.074;2023-03-19T18:34:04;15.35;;;12.70;;
64791;SDS011;51226;47.504;19.074;2023-03-19T18:37:13;16.08;;;12.65;;
64791;SDS011;51226;47.504;19.074;2023-03-19T18:40:19;17.80;;;13.55;;
64791;SDS011;51226;47.504;19.074;2023-03-19T18:43:24;17.27;;;13.30;;
64791;SDS011;51226;47.504;19.074;2023-03-19T18:46:28;16.12;;;12.95;;
64791;SDS011;51226;47.504;19.074;2023-03-19T18:49:32;17.65;;;13.15;;
64791;SDS011;51226;47.504;19.074;2023-03-19T18:55:38;17.33;;;12.60;;
64791;SDS011;51226;47.504;19.074;2023-03-19T18:58:42;13.93;;;12.40;;
64791;SDS011;51226;47.504;19.074;2023-03-19T19:01:44;14.80;;;12.35;;
64791;SDS011;51226;47.504;19.074;2023-03-19T19:04:48;16.20;;;12.40;;
64791;SDS011;51226;47.504;19.074;2023-03-19T19:07:51;14.70;;;11.05;;
64791;SDS011;51226;47.504;19.074;2023-03-19T19:13:57;11.40;;;9.75;;
64791;SDS011;51226;47.504;19.074;2023-03-19T19:17:02;16.25;;;10.60;;
64791;SDS011;51226;47.504;19.074;2023-03-19T19:20:05;16.15;;;10.70;;
64791;SDS011;51226;47.504;19.074;2023-03-19T19:23:11;15.25;;;10.27;;
64791;SDS011;51226;47.504;19.074;2023-03-19T19:26:25;16.67;;;11.20;;
64791;SDS011;51226;47.504;19.074;2023-03-19T19:29:31;13.60;;;10.88;;
64791;SDS011;51226;47.504;19.074;2023-03-19T19:32:34;14.90;;;11.07;;
64791;SDS011;51226;47.504;19.074;2023-03-19T19:35:38;12.30;;;10.60;;
64791;SDS011;51226;47.504;19.074;2023-03-19T19:38:41;13.40;;;10.57;;
64791;SDS011;51226;47.504;19.074;2023-03-19T19:44:49;13.60;;;11.27;;
64791;SDS011;51226;47.504;19.074;2023-03-19T19:47:55;11.10;;;9.90;;
64791;SDS011;51226;47.504;19.074;2023-03-19T19:50:58;14.65;;;10.70;;
64791;SDS011;51226;47.504;19.074;2023-03-19T19:54:02;21.02;;;13.27;;
64791;SDS011;51226;47.504;19.074;2023-03-19T19:57:22;14.48;;;11.32;;
64791;SDS011;51226;47.504;19.074;2023-03-19T20:00:29;14.60;;;11.43;;
64791;SDS011;51226;47.504;19.074;2023-03-19T20:03:33;12.45;;;11.15;;
64791;SDS011;51226;47.504;19.074;2023-03-19T20:06:37;14.55;;;11.52;;
64791;SDS011;51226;47.504;19.074;2023-03-19T20:09:40;16.67;;;11.93;;
64791;SDS011;51226;47.504;19.074;2023-03-19T20:12:44;15.90;;;11.88;;
64791;SDS011;51226;47.504;19.074;2023-03-19T20:15:50;15.63;;;12.65;;
64791;SDS011;51226;47.504;19.074;2023-03-19T20:18:54;15.02;;;11.48;;
64791;SDS011;51226;47.504;19.074;2023-03-19T20:21:58;13.98;;;11.30;;
64791;SDS011;51226;47.504;19.074;2023-03-19T20:25:01;16.33;;;11.75;;
64791;SDS011;51226;47.504;19.074;2023-03-19T20:28:05;14.07;;;11.70;;
64791;SDS011;51226;47.504;19.074;2023-03-19T20:31:32;15.68;;;11.20;;
64791;SDS011;51226;47.504;19.074;2023-03-19T20:34:35;18.62;;;11.63;;
64791;SDS011;51226;47.504;19.074;2023-03-19T20:37:41;13.45;;;11.45;;
64791;SDS011;51226;47.504;19.074;2023-03-19T20:40:53;14.30;;;11.52;;
64791;SDS011;51226;47.504;19.074;2023-03-19T20:43:58;16.55;;;12.20;;
64791;SDS011;51226;47.504;19.074;2023-03-19T20:47:11;13.52;;;11.75;;
64791;SDS011;51226;47.504;19.074;2023-03-19T20:50:25;14.75;;;12.00;;
64791;SDS011;51226;47.504;19.074;2023-03-19T20:53:31;14.40;;;12.20;;
64791;SDS011;51226;47.504;19.074;2023-03-19T20:56:35;16.12;;;12.50;;
64791;SDS011;51226;47.504;19.074;2023-03-19T20:59:39;16.35;;;12.30;;
64791;SDS011;51226;47.504;19.074;2023-03-19T21:02:46;17.60;;;12.68;;
64791;SDS011;51226;47.504;19.074;2023-03-19T21:05:50;17.50;;;14.25;;
64791;SDS011;51226;47.504;19.074;2023-03-19T21:08:56;18.77;;;14.18;;
64791;SDS011;51226;47.504;19.074;2023-03-19T21:12:01;18.50;;;13.27;;
64791;SDS011;51226;47.504;19.074;2023-03-19T21:15:04;19.50;;;12.25;;
64791;SDS011;51226;47.504;19.074;2023-03-19T21:21:14;17.37;;;12.65;;
64791;SDS011;51226;47.504;19.074;2023-03-19T21:24:20;17.05;;;13.40;;